Dupree, South Dakota
Current Conditions -  °F | °C
As of 5:52 AM on Tuesday 21 Oct 2014 (Local Time) from KMBG Reporting Station
Clear Clear  
Wind Chill: 53°   Ceiling: Unl
Heat Index: 53°   Visibility: 10mi
Dew Point: 40°   Wind: 10mph
Humidity: 61%   Direction: 140°SE
Pressure: 29.83"   Gusts: NA
Location:  45.05°N, 101.6°W
Report Text: KMBG 211152Z AUTO 14009KT 10SM CLR 12/04 A2983 RMK AO2 SLP101 T01170044 10144 20117 56007
Loading
Personal Weather Stations






























Interactive Weather Map
Tropical Storm Tracking
New forecast layout! Learn more

10-Day Weather Forecast

Advertisements
Track Severe Weather on mobile